Terminal Aerodrome Forecast
Issued by NWS

Home | Current Version | Previous Version | Text Only | Print | Product List | Glossary On
Versions: 1 2 3 4 5 6 7 8 9 10 11 12 13 14 15 16 17 18 19 20
000
FTUS42 TJSJ 230520
TAFIST
TAF
TIST 230520Z 2306/2406 09005KT P6SM FEW030
     FM231400 12012KT P6SM VCSH FEW030 SCT060
     FM232100 15008KT P6SM VCSH SCT030 BKN060=

USA.gov is the U.S. government's official web portal to all federal, state and local government web resources and services.